createdAt,value
2018-10-01T00:01:12.235Z,46.50
2018-10-01T00:03:40.743Z,46.40
2018-10-01T00:06:10.245Z,46.40
2018-10-01T00:08:38.757Z,46.40
2018-10-01T00:11:07.643Z,46.50
2018-10-01T00:13:36.343Z,46.50
2018-10-01T00:16:05.396Z,46.40
2018-10-01T00:18:34.209Z,46.50
2018-10-01T00:21:07.895Z,46.50
2018-10-01T00:23:36.606Z,46.60
2018-10-01T00:26:05.278Z,46.60
2018-10-01T00:28:34.235Z,46.60
2018-10-01T00:31:02.979Z,46.70
2018-10-01T00:33:31.544Z,46.70
2018-10-01T00:36:00.168Z,46.70
2018-10-01T00:38:29.057Z,46.70
2018-10-01T00:40:57.800Z,46.70
2018-10-01T00:43:26.267Z,46.60
2018-10-01T00:45:54.999Z,46.70
2018-10-01T00:48:24.135Z,47.30
2018-10-01T00:50:53.175Z,46.60
2018-10-01T00:53:21.825Z,46.60
2018-10-01T00:55:50.817Z,46.60
2018-10-01T00:58:19.329Z,46.60
2018-10-01T01:00:47.953Z,47.30
2018-10-01T01:03:16.480Z,46.70
2018-10-01T01:05:45.131Z,46.70
2018-10-01T01:08:14.085Z,47.50
2018-10-01T01:10:42.627Z,46.80
2018-10-01T01:13:11.132Z,46.90
2018-10-01T01:15:39.893Z,47.80
2018-10-01T01:18:08.923Z,47.00
2018-10-01T01:20:37.989Z,47.00
2018-10-01T01:23:06.568Z,46.90
2018-10-01T01:25:35.110Z,46.90
2018-10-01T01:28:03.675Z,46.80
2018-10-01T01:30:32.740Z,46.90
2018-10-01T01:33:01.183Z,46.80
2018-10-01T01:35:29.978Z,46.80
2018-10-01T01:37:58.601Z,46.80
2018-10-01T01:40:27.151Z,46.80
2018-10-01T01:42:55.745Z,46.80
2018-10-01T01:45:24.348Z,46.80
2018-10-01T01:47:52.777Z,46.70
2018-10-01T01:50:21.433Z,46.70
2018-10-01T01:52:50.659Z,46.80
2018-10-01T01:55:19.225Z,46.80
2018-10-01T01:57:47.724Z,46.70
2018-10-01T02:00:16.360Z,46.70
2018-10-01T02:02:45.100Z,46.80
2018-10-01T02:05:13.959Z,46.90
2018-10-01T02:07:42.482Z,46.80
2018-10-01T02:10:11.358Z,46.80
2018-10-01T02:12:40.024Z,46.80
2018-10-01T02:15:08.470Z,46.80
2018-10-01T02:17:36.945Z,46.70
2018-10-01T02:20:05.423Z,46.70
2018-10-01T02:22:33.909Z,46.80
2018-10-01T02:25:02.417Z,46.90
2018-10-01T02:27:31.036Z,46.90
2018-10-01T02:29:59.764Z,46.90
2018-10-01T02:32:28.434Z,46.90
2018-10-01T02:34:56.918Z,46.80
2018-10-01T02:37:25.341Z,47.00
2018-10-01T02:39:53.808Z,47.00
2018-10-01T02:42:22.566Z,47.00
2018-10-01T02:44:51.164Z,47.10
2018-10-01T02:47:20.814Z,47.00
2018-10-01T02:49:49.542Z,47.70
2018-10-01T02:52:24.149Z,47.10
2018-10-01T02:54:52.870Z,47.10
2018-10-01T02:57:21.698Z,47.10
2018-10-01T02:59:50.783Z,47.30
2018-10-01T03:02:19.748Z,47.20
2018-10-01T03:04:48.260Z,47.20
2018-10-01T03:07:16.804Z,47.10
2018-10-01T03:09:45.273Z,47.90
2018-10-01T03:12:14.319Z,47.90
2018-10-01T03:14:43.088Z,47.30
2018-10-01T03:17:11.712Z,47.40
2018-10-01T03:19:40.847Z,47.30
2018-10-01T03:22:09.281Z,47.30
2018-10-01T03:24:38.210Z,47.40
2018-10-01T03:27:06.814Z,47.40
2018-10-01T03:29:35.323Z,47.40
2018-10-01T03:32:03.845Z,47.50
2018-10-01T03:34:32.915Z,47.50
2018-10-01T03:37:01.876Z,47.50
2018-10-01T03:39:30.330Z,47.40
2018-10-01T03:41:59.414Z,47.60
2018-10-01T03:44:28.024Z,47.40
2018-10-01T03:46:56.453Z,47.50
2018-10-01T03:49:25.621Z,48.10
2018-10-01T03:51:54.087Z,47.50
2018-10-01T03:54:22.673Z,47.50
2018-10-01T03:56:51.316Z,47.30
2018-10-01T03:59:19.884Z,47.30
2018-10-01T04:01:49.103Z,47.40
2018-10-01T04:04:17.580Z,47.30
2018-10-01T04:06:46.733Z,47.30
2018-10-01T04:09:15.494Z,47.30
2018-10-01T04:11:44.148Z,47.30
2018-10-01T04:14:12.681Z,47.30
2018-10-01T04:16:42.242Z,47.20
2018-10-01T04:19:11.434Z,47.30
2018-10-01T04:21:40.113Z,46.90
2018-10-01T04:24:09.126Z,46.80
2018-10-01T04:26:37.707Z,46.60
2018-10-01T04:29:06.964Z,46.60
2018-10-01T04:31:37.580Z,46.50
2018-10-01T04:34:06.213Z,46.50
2018-10-01T04:36:34.691Z,46.50
2018-10-01T04:39:03.245Z,46.50
2018-10-01T04:41:31.873Z,46.40
2018-10-01T04:44:00.416Z,46.30
2018-10-01T04:46:29.280Z,46.30
2018-10-01T04:48:57.865Z,46.20
2018-10-01T04:51:26.304Z,46.30
2018-10-01T04:53:55.098Z,46.30
2018-10-01T04:56:23.572Z,46.30
2018-10-01T04:58:52.143Z,46.20
2018-10-01T05:01:20.789Z,46.40
2018-10-01T05:03:49.423Z,46.40
2018-10-01T05:06:18.949Z,46.30
2018-10-01T05:08:47.416Z,46.20
2018-10-01T05:11:15.899Z,46.20
2018-10-01T05:13:44.333Z,46.20
2018-10-01T05:16:12.965Z,46.20
2018-10-01T05:18:41.487Z,46.30
2018-10-01T05:21:10.619Z,46.30
2018-10-01T05:23:39.326Z,46.40
2018-10-01T05:26:07.973Z,47.00
2018-10-01T05:28:36.488Z,46.40
2018-10-01T05:31:05.146Z,46.50
2018-10-01T05:33:34.005Z,46.50
2018-10-01T05:36:02.873Z,46.50
2018-10-01T05:38:31.410Z,46.50
2018-10-01T05:40:59.862Z,46.40
2018-10-01T05:43:28.339Z,46.50
2018-10-01T05:45:56.896Z,46.50
2018-10-01T05:48:25.591Z,46.50
2018-10-01T05:50:54.467Z,46.50
2018-10-01T05:53:23.081Z,46.40
2018-10-01T05:55:51.865Z,46.30
2018-10-01T05:58:20.348Z,46.30
2018-10-01T06:00:49.055Z,46.20
2018-10-01T06:03:17.904Z,46.20
2018-10-01T06:05:46.551Z,46.20
2018-10-01T06:08:15.103Z,46.20
2018-10-01T06:10:44.501Z,46.10
2018-10-01T06:13:13.090Z,46.10
2018-10-01T06:15:41.612Z,46.10
2018-10-01T06:18:10.169Z,46.20
2018-10-01T06:20:39.237Z,46.40
2018-10-01T06:23:07.727Z,47.20
2018-10-01T06:25:36.361Z,48.30
2018-10-01T06:28:04.947Z,49.80
2018-10-01T06:30:34.253Z,51.00
2018-10-01T06:33:02.844Z,52.00
2018-10-01T06:35:31.491Z,52.60
2018-10-01T06:38:01.092Z,52.70
2018-10-01T06:40:29.572Z,52.80
2018-10-01T06:42:58.478Z,53.00
2018-10-01T06:45:27.164Z,52.90
2018-10-01T06:47:55.889Z,52.90
2018-10-01T06:50:24.442Z,52.90
2018-10-01T06:52:53.044Z,52.70
2018-10-01T06:55:42.695Z,52.60
2018-10-01T07:09:12.390Z,52.60
2018-10-01T07:11:51.671Z,51.30
2018-10-01T07:14:20.536Z,51.30
2018-10-01T07:16:50.050Z,51.20
2018-10-01T07:19:25.714Z,51.10
2018-10-01T07:21:55.466Z,51.00
2018-10-01T07:24:30.469Z,50.70
2018-10-01T07:27:04.214Z,50.80
2018-10-01T07:29:33.510Z,50.40
2018-10-01T07:32:02.074Z,50.30
2018-10-01T07:34:30.742Z,50.20
2018-10-01T07:36:59.488Z,50.20
2018-10-01T07:39:28.972Z,50.10
2018-10-01T07:41:59.788Z,49.70
2018-10-01T07:44:29.802Z,48.50
2018-10-01T07:46:58.498Z,48.40
2018-10-01T07:49:27.088Z,48.50
2018-10-01T07:52:01.466Z,47.70
2018-10-01T07:54:34.116Z,47.10
2018-10-01T07:57:02.930Z,46.60
2018-10-01T07:59:31.592Z,46.30
2018-10-01T08:02:00.091Z,46.10
2018-10-01T08:04:28.949Z,45.80
2018-10-01T08:06:57.515Z,46.00
2018-10-01T08:09:26.180Z,46.00
2018-10-01T08:11:54.670Z,45.80
2018-10-01T08:14:23.484Z,46.40
2018-10-01T08:16:52.137Z,46.80
2018-10-01T08:19:20.547Z,46.60
2018-10-01T08:21:49.453Z,46.10
2018-10-01T08:24:18.095Z,45.60
2018-10-01T08:26:46.696Z,45.30
2018-10-01T08:29:15.543Z,44.90
2018-10-01T08:31:43.892Z,44.80
2018-10-01T08:34:12.530Z,44.80
2018-10-01T08:36:41.215Z,45.00
2018-10-01T08:39:12.573Z,45.10
2018-10-01T08:41:41.378Z,45.10
2018-10-01T08:44:10.920Z,45.20
2018-10-01T08:46:39.422Z,45.10
2018-10-01T08:49:16.008Z,44.70
2018-10-01T08:51:52.233Z,45.10
2018-10-01T08:54:24.404Z,45.10
2018-10-01T08:56:53.158Z,45.10
2018-10-01T08:59:21.675Z,45.10
2018-10-01T09:01:50.088Z,44.70
2018-10-01T09:04:19.272Z,45.50
2018-10-01T09:06:48.379Z,44.40
2018-10-01T09:09:16.823Z,44.40
2018-10-01T09:11:45.314Z,44.30
2018-10-01T09:14:14.791Z,43.80
2018-10-01T09:16:43.566Z,43.80
2018-10-01T09:19:12.088Z,44.40
2018-10-01T09:21:40.733Z,43.70
2018-10-01T09:24:09.425Z,43.40
2018-10-01T09:26:37.951Z,44.00
2018-10-01T09:29:06.623Z,43.40
2018-10-01T09:31:35.026Z,43.20
2018-10-01T09:34:04.167Z,43.00
2018-10-01T09:36:32.623Z,42.60
2018-10-01T09:39:01.108Z,42.20
2018-10-01T09:41:29.982Z,42.10
2018-10-01T09:43:58.593Z,41.70
2018-10-01T09:46:27.249Z,41.10
2018-10-01T09:48:55.621Z,41.50
2018-10-01T09:51:24.823Z,41.00
2018-10-01T09:53:53.291Z,41.00
2018-10-01T09:56:21.793Z,40.90
2018-10-01T09:58:50.183Z,40.70
2018-10-01T10:01:18.638Z,40.60
2018-10-01T10:03:47.125Z,40.50
2018-10-01T10:06:15.831Z,40.50
2018-10-01T10:08:44.465Z,40.30
2018-10-01T10:11:13.043Z,39.80
2018-10-01T10:13:41.569Z,39.40
2018-10-01T10:16:10.225Z,39.20
2018-10-01T10:18:38.866Z,38.90
2018-10-01T10:21:07.970Z,39.00
2018-10-01T10:23:36.452Z,38.40
2018-10-01T10:26:05.174Z,38.00
2018-10-01T10:28:33.926Z,37.60
2018-10-01T10:31:02.372Z,37.10
2018-10-01T10:33:30.893Z,36.90
2018-10-01T10:35:59.367Z,36.90
2018-10-01T10:38:27.952Z,36.70
2018-10-01T10:40:56.502Z,36.80
2018-10-01T10:43:25.543Z,36.70
2018-10-01T10:45:54.130Z,36.50
2018-10-01T10:48:22.599Z,36.40
2018-10-01T10:50:51.084Z,36.50
2018-10-01T10:53:19.776Z,36.20
2018-10-01T10:55:48.212Z,36.10
2018-10-01T10:58:16.628Z,36.00
2018-10-01T11:00:45.126Z,35.70
2018-10-01T11:03:13.901Z,35.60
2018-10-01T11:05:42.330Z,35.70
2018-10-01T11:08:11.125Z,35.50
2018-10-01T11:10:39.534Z,35.30
2018-10-01T11:13:08.563Z,35.20
2018-10-01T11:15:37.454Z,35.10
2018-10-01T11:18:06.195Z,34.90
2018-10-01T11:20:34.934Z,35.10
2018-10-01T11:23:03.539Z,35.40
2018-10-01T11:25:33.462Z,35.70
2018-10-01T11:28:02.166Z,35.80
2018-10-01T11:30:31.124Z,36.20
2018-10-01T11:33:00.821Z,36.20
2018-10-01T11:35:30.167Z,36.40
2018-10-01T11:37:58.894Z,36.80
2018-10-01T11:40:27.584Z,36.80
2018-10-01T11:42:56.144Z,36.70
2018-10-01T11:45:24.701Z,36.60
2018-10-01T11:47:53.166Z,36.60
2018-10-01T11:50:21.700Z,36.60
2018-10-01T11:52:50.201Z,36.40
2018-10-01T11:55:19.024Z,36.50
2018-10-01T11:57:47.868Z,36.60
2018-10-01T12:00:17.533Z,36.90
2018-10-01T12:02:46.502Z,37.10
2018-10-01T12:05:15.062Z,37.40
2018-10-01T12:07:43.952Z,37.60
2018-10-01T12:10:12.548Z,37.80
2018-10-01T12:12:40.965Z,37.80
2018-10-01T12:15:09.585Z,37.70
2018-10-01T12:17:38.052Z,37.80
2018-10-01T12:20:07.202Z,37.90
2018-10-01T12:22:35.698Z,37.80
2018-10-01T12:25:04.245Z,37.80
2018-10-01T12:27:33.009Z,37.80
2018-10-01T12:30:01.719Z,37.90
2018-10-01T12:32:31.026Z,37.90
2018-10-01T12:34:59.620Z,37.90
2018-10-01T12:37:28.461Z,37.80
2018-10-01T12:39:57.618Z,37.80
2018-10-01T12:42:26.333Z,37.70
2018-10-01T12:44:55.087Z,38.20
2018-10-01T12:47:23.601Z,38.10
2018-10-01T12:49:52.259Z,37.30
2018-10-01T12:52:20.809Z,37.30
2018-10-01T12:54:49.268Z,37.10
2018-10-01T12:57:17.862Z,37.10
2018-10-01T12:59:46.456Z,37.60
2018-10-01T13:02:14.960Z,36.90
2018-10-01T13:04:43.578Z,36.90
2018-10-01T13:07:12.073Z,36.90
2018-10-01T13:09:40.908Z,36.90
2018-10-01T13:12:09.526Z,37.00
2018-10-01T13:14:38.531Z,37.00
2018-10-01T13:17:07.116Z,36.80
2018-10-01T13:19:35.886Z,36.70
2018-10-01T13:22:05.081Z,36.70
2018-10-01T13:24:33.908Z,36.50
2018-10-01T13:27:02.406Z,36.60
2018-10-01T13:29:31.095Z,36.50
2018-10-01T13:32:00.236Z,36.60
2018-10-01T13:34:29.085Z,36.80
2018-10-01T13:36:57.829Z,37.00
2018-10-01T13:39:33.863Z,37.20
2018-10-01T13:42:03.070Z,37.40
2018-10-01T13:44:31.855Z,37.30
2018-10-01T13:47:00.642Z,37.30
2018-10-01T13:49:29.778Z,37.30
2018-10-01T13:51:58.366Z,37.10
2018-10-01T13:54:27.059Z,37.10
2018-10-01T13:56:55.722Z,36.90
2018-10-01T13:59:24.428Z,36.90
2018-10-01T14:01:53.767Z,36.80
2018-10-01T14:04:22.941Z,36.80
2018-10-01T14:06:51.621Z,37.30
2018-10-01T14:09:20.217Z,36.70
2018-10-01T14:11:49.589Z,36.70
2018-10-01T14:14:18.971Z,36.70
2018-10-01T14:16:48.251Z,36.60
2018-10-01T14:19:16.982Z,36.50
2018-10-01T14:21:45.385Z,36.40
2018-10-01T14:24:14.055Z,36.20
2018-10-01T14:26:42.693Z,36.20
2018-10-01T14:29:11.523Z,36.60
2018-10-01T14:31:40.153Z,35.80
2018-10-01T14:34:08.828Z,35.80
2018-10-01T14:36:37.374Z,35.80
2018-10-01T14:39:06.437Z,35.70
2018-10-01T14:41:35.394Z,35.50
2018-10-01T14:44:04.122Z,35.30
2018-10-01T14:46:32.841Z,35.20
2018-10-01T14:49:01.561Z,35.10
2018-10-01T14:51:30.313Z,34.90
2018-10-01T14:53:59.117Z,34.80
2018-10-01T14:56:28.132Z,34.70
2018-10-01T14:58:56.660Z,34.70
2018-10-01T15:01:25.504Z,34.70
2018-10-01T15:03:54.245Z,34.50
2018-10-01T15:06:23.068Z,34.50
2018-10-01T15:08:51.692Z,34.60
2018-10-01T15:11:20.252Z,34.80
2018-10-01T15:13:48.766Z,35.10
2018-10-01T15:16:17.434Z,35.40
2018-10-01T15:18:46.030Z,35.70
2018-10-01T15:21:14.517Z,36.10
2018-10-01T15:23:43.028Z,36.30
2018-10-01T15:26:12.454Z,36.60
2018-10-01T15:28:41.016Z,36.70
2018-10-01T15:31:09.741Z,36.90
2018-10-01T15:33:38.546Z,37.00
2018-10-01T15:36:07.387Z,37.10
2018-10-01T15:38:36.832Z,37.10
2018-10-01T15:41:06.081Z,37.10
2018-10-01T15:43:34.780Z,37.10
2018-10-01T15:46:03.430Z,37.20
2018-10-01T15:48:32.173Z,37.20
2018-10-01T15:51:01.078Z,37.20
2018-10-01T15:53:29.628Z,37.20
2018-10-01T15:55:58.271Z,37.30
2018-10-01T15:58:27.922Z,37.30
2018-10-01T16:00:56.713Z,37.30
2018-10-01T16:03:25.343Z,37.40
2018-10-01T16:05:53.938Z,37.60
2018-10-01T16:08:22.764Z,37.80
2018-10-01T16:10:51.932Z,37.90
2018-10-01T16:13:20.352Z,38.00
2018-10-01T16:15:49.493Z,38.10
2018-10-01T16:18:18.188Z,38.30
2018-10-01T16:20:46.909Z,38.30
2018-10-01T16:23:15.329Z,38.40
2018-10-01T16:25:44.134Z,38.30
2018-10-01T16:28:12.691Z,38.30
2018-10-01T16:30:42.012Z,38.40
2018-10-01T16:33:10.735Z,38.30
2018-10-01T16:35:39.345Z,38.30
2018-10-01T16:38:08.713Z,38.20
2018-10-01T16:40:37.343Z,38.20
2018-10-01T16:43:05.948Z,38.20
2018-10-01T16:45:35.235Z,38.20
2018-10-01T16:48:03.714Z,38.00
2018-10-01T16:50:32.231Z,38.00
2018-10-01T16:53:00.772Z,37.90
2018-10-01T16:55:29.265Z,37.70
2018-10-01T16:57:57.705Z,37.60
2018-10-01T17:00:26.641Z,37.40
2018-10-01T17:02:55.498Z,37.40
2018-10-01T17:05:24.108Z,37.30
2018-10-01T17:07:52.976Z,37.40
2018-10-01T17:10:21.682Z,37.50
2018-10-01T17:12:50.173Z,37.70
2018-10-01T17:15:18.830Z,38.30
2018-10-01T17:17:47.304Z,38.70
2018-10-01T17:20:15.806Z,39.50
2018-10-01T17:22:45.011Z,39.10
2018-10-01T17:25:13.755Z,40.00
2018-10-01T17:27:42.179Z,39.40
2018-10-01T17:30:10.816Z,39.50
2018-10-01T17:32:39.554Z,39.50
2018-10-01T17:35:08.179Z,39.50
2018-10-01T17:37:36.701Z,39.50
2018-10-01T17:40:05.417Z,39.50
2018-10-01T17:42:34.063Z,39.50
2018-10-01T17:45:02.667Z,39.50
2018-10-01T17:47:31.132Z,39.40
2018-10-01T17:49:59.813Z,39.50
2018-10-01T17:52:28.432Z,39.60
2018-10-01T17:54:56.847Z,39.60
2018-10-01T17:57:25.274Z,39.70
2018-10-01T17:59:53.863Z,39.80
2018-10-01T18:02:22.445Z,39.80
2018-10-01T18:04:51.045Z,39.80
2018-10-01T18:07:19.677Z,39.80
2018-10-01T18:09:48.324Z,39.80
2018-10-01T18:12:16.893Z,39.70
2018-10-01T18:14:45.802Z,39.90
2018-10-01T18:17:14.337Z,39.90
2018-10-01T18:19:43.282Z,40.00
2018-10-01T18:22:12.732Z,40.20
2018-10-01T18:24:41.442Z,40.30
2018-10-01T18:27:10.099Z,40.30
2018-10-01T18:29:38.628Z,40.40
2018-10-01T18:32:07.739Z,40.40
2018-10-01T18:34:36.200Z,40.50
2018-10-01T18:37:04.932Z,40.50
2018-10-01T18:39:34.316Z,40.70
2018-10-01T18:42:03.448Z,40.80
2018-10-01T18:44:31.884Z,41.10
2018-10-01T18:47:00.746Z,41.50
2018-10-01T18:49:36.358Z,41.70
2018-10-01T18:52:05.763Z,42.30
2018-10-01T18:54:38.439Z,43.00
2018-10-01T18:57:08.221Z,43.80
2018-10-01T18:59:38.558Z,45.50
2018-10-01T19:02:13.004Z,46.20
2018-10-01T19:04:41.767Z,47.10
2018-10-01T19:07:11.132Z,46.20
2018-10-01T19:09:41.433Z,46.10
2018-10-01T19:12:11.269Z,45.80
2018-10-01T19:14:40.135Z,45.70
2018-10-01T19:17:10.196Z,45.50
2018-10-01T19:19:38.728Z,46.30
2018-10-01T19:22:07.590Z,46.20
2018-10-01T19:24:36.483Z,46.50
2018-10-01T19:27:06.375Z,46.60
2018-10-01T19:29:34.921Z,46.50
2018-10-01T19:32:04.353Z,46.30
2018-10-01T19:34:33.389Z,46.20
2018-10-01T19:37:24.141Z,46.20
2018-10-01T19:40:06.585Z,47.00
2018-10-01T19:42:35.678Z,46.30
2018-10-01T19:45:04.739Z,46.50
2018-10-01T19:47:33.353Z,46.60
2018-10-01T19:50:03.009Z,46.60
2018-10-01T19:52:31.826Z,46.60
2018-10-01T19:55:00.517Z,46.60
2018-10-01T19:57:29.351Z,46.60
2018-10-01T19:59:57.965Z,46.40
2018-10-01T20:02:26.748Z,46.40
2018-10-01T20:04:55.587Z,46.60
2018-10-01T20:07:24.026Z,46.70
2018-10-01T20:09:52.594Z,46.80
2018-10-01T20:12:21.731Z,46.50
2018-10-01T20:14:51.527Z,46.20
2018-10-01T20:17:34.986Z,46.70
2018-10-01T20:20:03.650Z,46.90
2018-10-01T20:22:32.630Z,46.90
2018-10-01T20:25:01.806Z,46.90
2018-10-01T20:27:30.976Z,46.90
2018-10-01T20:30:04.040Z,47.10
2018-10-01T20:32:33.834Z,47.10
2018-10-01T20:35:04.610Z,46.90
2018-10-01T20:37:33.690Z,47.10
2018-10-01T20:40:05.056Z,47.10
2018-10-01T20:42:33.793Z,47.10
2018-10-01T20:45:02.401Z,47.00
2018-10-01T20:47:31.449Z,47.20
2018-10-01T20:50:00.496Z,47.60
2018-10-01T20:52:29.629Z,48.00
2018-10-01T20:54:58.165Z,48.00
2018-10-01T20:57:26.638Z,48.10
2018-10-01T20:59:56.743Z,48.10
2018-10-01T21:02:25.341Z,48.00
2018-10-01T21:04:54.239Z,48.00
2018-10-01T21:07:22.859Z,48.10
2018-10-01T21:09:51.746Z,48.00
2018-10-01T21:12:20.366Z,48.00
2018-10-01T21:14:49.326Z,48.00
2018-10-01T21:17:17.763Z,47.80
2018-10-01T21:19:46.282Z,47.60
2018-10-01T21:22:15.488Z,47.60
2018-10-01T21:24:44.412Z,47.70
2018-10-01T21:27:13.151Z,47.80
2018-10-01T21:29:41.548Z,47.80
2018-10-01T21:32:11.068Z,47.70
2018-10-01T21:34:39.759Z,47.60
2018-10-01T21:37:08.219Z,47.60
2018-10-01T21:40:16.036Z,47.60
2018-10-01T21:42:44.518Z,47.60
2018-10-01T21:45:14.424Z,47.50
2018-10-01T21:47:42.987Z,47.60
2018-10-01T21:50:11.687Z,47.50
2018-10-01T21:52:40.316Z,47.50
2018-10-01T21:55:09.680Z,47.40
2018-10-01T21:57:38.407Z,47.40
2018-10-01T22:00:10.377Z,47.40
2018-10-01T22:02:39.454Z,47.40
2018-10-01T22:05:08.432Z,47.40
2018-10-01T22:07:37.066Z,47.40
2018-10-01T22:10:06.318Z,47.20
2018-10-01T22:12:35.207Z,47.20
2018-10-01T22:15:03.681Z,47.30
2018-10-01T22:17:32.967Z,47.20
2018-10-01T22:20:02.103Z,47.30
2018-10-01T22:22:31.065Z,47.30
2018-10-01T22:25:00.076Z,47.40
2018-10-01T22:27:28.681Z,47.40
2018-10-01T22:29:57.161Z,47.40
2018-10-01T22:32:25.993Z,47.30
2018-10-01T22:34:54.497Z,47.30
2018-10-01T22:37:23.268Z,47.30
2018-10-01T22:39:51.989Z,46.80
2018-10-01T22:42:20.524Z,45.50
2018-10-01T22:44:49.394Z,44.20
2018-10-01T22:47:18.587Z,43.20
2018-10-01T22:49:47.265Z,42.30
2018-10-01T22:52:15.898Z,41.60
2018-10-01T22:54:44.677Z,41.10
2018-10-01T22:57:13.333Z,40.50
2018-10-01T22:59:42.082Z,40.20
2018-10-01T23:02:10.711Z,40.20
2018-10-01T23:04:39.530Z,40.00
2018-10-01T23:07:08.200Z,39.90
2018-10-01T23:09:36.955Z,39.70
2018-10-01T23:12:05.805Z,39.40
2018-10-01T23:14:34.441Z,39.30
2018-10-01T23:17:02.959Z,39.30
2018-10-01T23:19:31.469Z,39.00
2018-10-01T23:22:00.230Z,38.80
2018-10-01T23:24:29.188Z,38.80
2018-10-01T23:26:57.689Z,38.70
2018-10-01T23:29:26.331Z,38.60
2018-10-01T23:31:54.957Z,38.50
2018-10-01T23:34:23.558Z,38.60
2018-10-01T23:36:52.213Z,38.70
2018-10-01T23:39:20.787Z,38.80
2018-10-01T23:41:49.338Z,38.90
2018-10-01T23:44:17.921Z,39.10
2018-10-01T23:46:46.955Z,39.30
2018-10-01T23:49:15.555Z,39.40
2018-10-01T23:51:44.147Z,39.20
2018-10-01T23:54:12.729Z,39.80
2018-10-01T23:56:41.286Z,39.80
2018-10-01T23:59:09.969Z,40.00
